Time;durP1;ratioP1;P1;durP2;ratioP2;P2;SDS_P1;SDS_P2;PMS_P1;PMS_P2;Temp;Humidity;BMP_temperature;BMP_pressure;BME280_temperature;BME280_humidity;BME280_pressure;Samples;Min_cycle;Max_cycle;Signal;HPM_P1;HPM_P2
2023/06/08 00:02:15;;;;;;;2.35;2.15;;;;;;;;;;5067977;28;20280;-86
2023/06/08 00:04:45;;;;;;;2.28;2.08;;;;;;;;;;5076274;28;20201;-86
2023/06/08 00:07:14;;;;;;;2.00;1.90;;;;;;;;;;5075863;28;20212;-86
2023/06/08 00:09:42;;;;;;;2.50;2.33;;;;;;;;;;5045770;28;20276;-86
2023/06/08 00:12:11;;;;;;;2.63;2.42;;;;;;;;;;5041550;28;20232;-86
2023/06/08 00:14:39;;;;;;;2.55;2.33;;;;;;;;;;5056056;28;20198;-87
2023/06/08 00:17:09;;;;;;;2.72;2.53;;;;;;;;;;5037163;28;20226;-86
2023/06/08 00:19:37;;;;;;;2.38;2.28;;;;;;;;;;5035520;28;20312;-86
2023/06/08 00:22:07;;;;;;;2.25;2.13;;;;;;;;;;5034834;28;20203;-86
2023/06/08 00:24:35;;;;;;;2.10;2.00;;;;;;;;;;5034660;28;20198;-85
2023/06/08 00:27:03;;;;;;;2.10;2.00;;;;;;;;;;5034578;28;20205;-86
2023/06/08 00:29:30;;;;;;;2.65;2.45;;;;;;;;;;5041905;28;20232;-86
2023/06/08 00:31:58;;;;;;;2.80;2.50;;;;;;;;;;5054085;28;20296;-86
2023/06/08 00:34:27;;;;;;;2.13;1.92;;;;;;;;;;5054514;28;20288;-87
2023/06/08 00:36:55;;;;;;;1.80;1.70;;;;;;;;;;5054017;28;20240;-86
2023/06/08 00:39:24;;;;;;;1.88;1.77;;;;;;;;;;5054285;28;20285;-85
2023/06/08 00:41:51;;;;;;;2.38;2.17;;;;;;;;;;5054493;28;20263;-86
2023/06/08 00:44:19;;;;;;;1.67;1.58;;;;;;;;;;5053771;28;20698;-86
2023/06/08 00:46:47;;;;;;;1.80;1.70;;;;;;;;;;5054045;28;20241;-85
2023/06/08 00:49:16;;;;;;;2.28;2.03;;;;;;;;;;5053654;28;20312;-86
2023/06/08 00:51:44;;;;;;;2.60;2.13;;;;;;;;;;5054037;28;20201;-87
2023/06/08 00:54:14;;;;;;;2.67;2.47;;;;;;;;;;5054377;28;20680;-85
2023/06/08 00:56:48;;;;;;;2.33;2.20;;;;;;;;;;5054005;28;20215;-86
2023/06/08 00:59:16;;;;;;;2.70;2.50;;;;;;;;;;5053733;28;20185;-86
2023/06/08 01:01:44;;;;;;;2.55;2.40;;;;;;;;;;5046469;28;20202;-86
2023/06/08 01:04:14;;;;;;;3.47;2.33;;;;;;;;;;5034348;28;20209;-86
2023/06/08 01:06:46;;;;;;;2.08;1.95;;;;;;;;;;5036102;28;20233;-84
2023/06/08 01:09:22;;;;;;;1.95;1.85;;;;;;;;;;5051956;28;20190;-84
2023/06/08 01:12:07;;;;;;;2.28;2.08;;;;;;;;;;5053366;28;20228;-84
2023/06/08 01:14:41;;;;;;;2.30;2.15;;;;;;;;;;5052752;28;20210;-84
2023/06/08 01:17:12;;;;;;;2.75;2.55;;;;;;;;;;5053515;28;20547;-85
2023/06/08 01:20:04;;;;;;;2.40;2.30;;;;;;;;;;5012821;28;1141734;-84
2023/06/08 01:22:56;;;;;;;2.50;2.30;;;;;;;;;;5040181;28;20255;-85
2023/06/08 01:25:29;;;;;;;2.95;2.20;;;;;;;;;;5054409;28;20585;-84
2023/06/08 01:28:12;;;;;;;2.20;2.10;;;;;;;;;;5051691;28;20201;-84
2023/06/08 01:30:41;;;;;;;1.90;1.77;;;;;;;;;;5048654;28;20287;-84
2023/06/08 01:33:09;;;;;;;2.10;2.00;;;;;;;;;;5055993;28;20372;-84
2023/06/08 01:35:36;;;;;;;2.80;2.60;;;;;;;;;;5050607;28;20198;-85
2023/06/08 01:38:13;;;;;;;3.05;2.85;;;;;;;;;;5050173;28;20292;-84
2023/06/08 01:40:45;;;;;;;2.58;2.38;;;;;;;;;;5053714;28;20240;-84
2023/06/08 01:43:13;;;;;;;3.92;3.63;;;;;;;;;;5053137;28;20193;-84
2023/06/08 01:45:46;;;;;;;2.72;2.53;;;;;;;;;;5038394;28;20284;-84
2023/06/08 01:48:14;;;;;;;2.25;2.15;;;;;;;;;;5038739;28;20225;-84
2023/06/08 01:50:43;;;;;;;2.67;2.45;;;;;;;;;;5033512;28;20234;-84
2023/06/08 01:53:11;;;;;;;2.70;2.50;;;;;;;;;;5033590;28;20261;-85
2023/06/08 01:55:38;;;;;;;2.92;2.72;;;;;;;;;;5032806;28;20285;-84
2023/06/08 01:58:07;;;;;;;2.60;2.40;;;;;;;;;;5033483;28;20293;-84
2023/06/08 02:00:35;;;;;;;2.33;2.13;;;;;;;;;;5050393;28;20300;-84
2023/06/08 02:03:02;;;;;;;2.92;2.72;;;;;;;;;;5037421;28;20640;-84
2023/06/08 02:05:30;;;;;;;2.63;2.42;;;;;;;;;;5033705;28;20783;-84
2023/06/08 02:07:57;;;;;;;2.30;2.20;;;;;;;;;;5033689;28;20238;-84
2023/06/08 02:10:25;;;;;;;2.78;2.55;;;;;;;;;;5050329;28;20218;-85
2023/06/08 02:12:52;;;;;;;5.57;2.80;;;;;;;;;;5033195;28;20253;-84
2023/06/08 02:15:21;;;;;;;2.67;2.47;;;;;;;;;;5036481;28;20722;-84
2023/06/08 02:17:48;;;;;;;2.00;1.90;;;;;;;;;;5033129;28;20686;-85
2023/06/08 02:20:17;;;;;;;2.50;2.30;;;;;;;;;;5032684;28;20320;-84
2023/06/08 02:22:45;;;;;;;2.20;2.10;;;;;;;;;;5033093;28;20206;-84
2023/06/08 02:25:12;;;;;;;2.28;2.17;;;;;;;;;;5032934;28;20244;-84
2023/06/08 02:27:43;;;;;;;2.78;2.33;;;;;;;;;;5034645;28;20229;-84
2023/06/08 02:30:13;;;;;;;1.98;1.88;;;;;;;;;;5053130;28;20616;-84
2023/06/08 02:32:45;;;;;;;2.22;2.10;;;;;;;;;;5067554;28;20566;-85
2023/06/08 02:35:13;;;;;;;2.03;1.92;;;;;;;;;;5065067;28;20252;-84
2023/06/08 02:37:42;;;;;;;2.17;2.05;;;;;;;;;;5052810;28;20872;-84
2023/06/08 02:40:11;;;;;;;2.92;2.72;;;;;;;;;;5048892;28;20218;-84
2023/06/08 02:42:38;;;;;;;2.90;2.67;;;;;;;;;;5042185;28;20289;-85
2023/06/08 02:45:07;;;;;;;2.80;2.60;;;;;;;;;;5038898;28;20635;-84
2023/06/08 02:47:35;;;;;;;3.40;2.60;;;;;;;;;;5051165;28;20189;-84
2023/06/08 02:50:04;;;;;;;2.95;2.65;;;;;;;;;;5040015;28;20226;-84
2023/06/08 02:52:31;;;;;;;3.13;2.83;;;;;;;;;;5032844;28;20216;-84
2023/06/08 02:54:59;;;;;;;3.50;3.20;;;;;;;;;;5050912;28;20601;-84
2023/06/08 02:57:26;;;;;;;3.58;3.28;;;;;;;;;;5049952;28;20204;-84
2023/06/08 02:59:55;;;;;;;3.88;3.13;;;;;;;;;;5045418;28;20632;-84
2023/06/08 03:02:22;;;;;;;3.35;3.05;;;;;;;;;;5037552;28;20651;-84
2023/06/08 03:04:52;;;;;;;3.65;3.42;;;;;;;;;;5036655;28;20233;-84
2023/06/08 03:07:21;;;;;;;3.83;3.47;;;;;;;;;;5052050;28;20198;-83
2023/06/08 03:09:49;;;;;;;4.13;3.70;;;;;;;;;;5051431;28;20283;-84
2023/06/08 03:12:16;;;;;;;4.18;3.80;;;;;;;;;;5050784;28;20308;-84
2023/06/08 03:14:44;;;;;;;3.42;3.22;;;;;;;;;;5040463;28;20284;-84
2023/06/08 03:17:11;;;;;;;3.08;2.83;;;;;;;;;;5032249;28;20221;-84
2023/06/08 03:19:39;;;;;;;3.40;3.20;;;;;;;;;;5038363;28;20228;-84
2023/06/08 03:22:07;;;;;;;3.58;3.33;;;;;;;;;;5049426;28;20221;-84
2023/06/08 03:24:36;;;;;;;4.07;3.38;;;;;;;;;;5041716;28;20201;-84
2023/06/08 03:27:06;;;;;;;4.15;3.85;;;;;;;;;;5049036;28;20339;-85
2023/06/08 03:29:33;;;;;;;3.90;3.50;;;;;;;;;;5040585;28;20305;-85
2023/06/08 03:32:01;;;;;;;3.45;3.15;;;;;;;;;;5048330;28;20214;-84
2023/06/08 03:34:29;;;;;;;3.47;3.20;;;;;;;;;;5046502;28;20683;-85
2023/06/08 03:36:57;;;;;;;3.75;3.45;;;;;;;;;;5046992;28;20216;-84
2023/06/08 03:39:24;;;;;;;2.95;2.75;;;;;;;;;;5044222;28;20199;-85
2023/06/08 03:41:53;;;;;;;3.40;3.10;;;;;;;;;;5055081;28;20300;-84
2023/06/08 03:44:21;;;;;;;3.50;3.28;;;;;;;;;;5040185;28;20240;-84
2023/06/08 03:46:49;;;;;;;3.30;3.10;;;;;;;;;;5051293;28;20244;-84
2023/06/08 03:49:17;;;;;;;3.55;3.25;;;;;;;;;;5054712;28;20236;-84
2023/06/08 03:51:44;;;;;;;3.40;3.10;;;;;;;;;;5050654;28;20304;-85
2023/06/08 03:54:11;;;;;;;3.65;3.35;;;;;;;;;;5051231;28;20608;-84
2023/06/08 03:56:39;;;;;;;4.13;3.83;;;;;;;;;;5050836;28;20689;-83
2023/06/08 03:59:08;;;;;;;4.35;3.78;;;;;;;;;;5044941;28;20206;-84
2023/06/08 04:01:36;;;;;;;4.10;3.67;;;;;;;;;;5041398;28;20245;-84
2023/06/08 04:04:04;;;;;;;4.00;3.67;;;;;;;;;;5039436;28;20208;-85
2023/06/08 04:06:33;;;;;;;3.60;3.30;;;;;;;;;;5056006;28;20289;-85
2023/06/08 04:09:01;;;;;;;3.72;3.42;;;;;;;;;;5055039;28;20204;-84
2023/06/08 04:11:28;;;;;;;3.28;3.08;;;;;;;;;;5044623;28;20605;-84
2023/06/08 04:13:56;;;;;;;4.43;3.45;;;;;;;;;;5035933;28;20289;-84
2023/06/08 04:16:25;;;;;;;4.00;3.70;;;;;;;;;;5055351;28;20734;-84
2023/06/08 04:18:53;;;;;;;4.07;3.67;;;;;;;;;;5055630;28;20293;-84
2023/06/08 04:21:25;;;;;;;4.13;3.83;;;;;;;;;;5055306;28;20233;-85
2023/06/08 04:23:52;;;;;;;5.50;3.85;;;;;;;;;;5055410;28;20229;-83
2023/06/08 04:26:20;;;;;;;4.63;3.80;;;;;;;;;;5055411;28;20227;-84
2023/06/08 04:28:49;;;;;;;4.00;3.70;;;;;;;;;;5054981;28;20201;-84
2023/06/08 04:31:17;;;;;;;3.33;3.10;;;;;;;;;;5045912;28;20585;-84
2023/06/08 04:33:45;;;;;;;4.10;3.70;;;;;;;;;;5055118;28;20240;-84
2023/06/08 04:36:13;;;;;;;3.22;3.03;;;;;;;;;;5054760;28;20285;-85
2023/06/08 04:38:42;;;;;;;3.80;3.50;;;;;;;;;;5048254;28;20630;-84
2023/06/08 04:41:11;;;;;;;5.07;3.60;;;;;;;;;;5035287;28;20246;-84
2023/06/08 04:43:38;;;;;;;3.25;2.95;;;;;;;;;;5045376;28;20209;-84
2023/06/08 04:46:07;;;;;;;4.90;4.10;;;;;;;;;;5048401;28;20256;-84
2023/06/08 04:48:37;;;;;;;3.33;3.13;;;;;;;;;;5045108;28;20193;-85
2023/06/08 04:51:09;;;;;;;3.70;3.40;;;;;;;;;;5045272;28;20660;-84
2023/06/08 04:53:37;;;;;;;7.63;3.92;;;;;;;;;;5037533;28;20289;-84
2023/06/08 04:56:06;;;;;;;3.88;3.40;;;;;;;;;;5052045;28;20201;-85
2023/06/08 04:58:34;;;;;;;3.72;3.42;;;;;;;;;;5054360;28;20281;-84
2023/06/08 05:01:01;;;;;;;2.65;2.45;;;;;;;;;;5043526;28;20223;-85
2023/06/08 05:03:29;;;;;;;3.28;2.92;;;;;;;;;;5040218;28;20293;-85
2023/06/08 05:05:56;;;;;;;4.03;3.58;;;;;;;;;;5034967;28;20213;-85
2023/06/08 05:08:25;;;;;;;3.22;3.03;;;;;;;;;;5044257;28;20289;-84
2023/06/08 05:10:52;;;;;;;3.30;3.10;;;;;;;;;;5054280;28;20221;-84
2023/06/08 05:13:20;;;;;;;3.00;2.80;;;;;;;;;;5054594;28;20231;-85
2023/06/08 05:15:47;;;;;;;2.35;2.25;;;;;;;;;;5054530;28;20289;-84
2023/06/08 05:18:15;;;;;;;2.95;2.75;;;;;;;;;;5054142;28;20230;-84
2023/06/08 05:20:42;;;;;;;3.88;2.92;;;;;;;;;;5054066;28;20272;-85
2023/06/08 05:23:10;;;;;;;2.63;2.40;;;;;;;;;;5054026;28;20233;-85
2023/06/08 05:25:39;;;;;;;2.40;2.20;;;;;;;;;;5049406;28;20285;-84
2023/06/08 05:28:06;;;;;;;2.42;2.22;;;;;;;;;;5048852;28;20306;-84
2023/06/08 05:30:34;;;;;;;2.20;2.08;;;;;;;;;;5054404;28;20218;-84
2023/06/08 05:33:01;;;;;;;2.55;2.35;;;;;;;;;;5043802;28;20218;-84
2023/06/08 05:35:29;;;;;;;2.13;2.03;;;;;;;;;;5033970;28;20628;-84
2023/06/08 05:37:57;;;;;;;2.58;2.38;;;;;;;;;;5052540;28;20201;-85
2023/06/08 05:40:25;;;;;;;2.70;2.50;;;;;;;;;;5045106;28;20742;-84
2023/06/08 05:42:54;;;;;;;2.72;2.47;;;;;;;;;;5035464;28;20214;-81
2023/06/08 05:45:22;;;;;;;3.67;3.38;;;;;;;;;;5035364;28;20727;-85
2023/06/08 05:47:50;;;;;;;3.47;3.28;;;;;;;;;;5067123;28;20223;-85
2023/06/08 05:50:18;;;;;;;3.17;2.88;;;;;;;;;;5054421;28;20323;-85
2023/06/08 05:52:45;;;;;;;3.58;3.00;;;;;;;;;;5055520;28;20225;-85
2023/06/08 05:55:13;;;;;;;2.78;2.58;;;;;;;;;;5059412;28;20790;-85
2023/06/08 05:57:41;;;;;;;3.47;3.28;;;;;;;;;;5048895;28;20292;-85
2023/06/08 06:00:12;;;;;;;4.10;3.70;;;;;;;;;;5055002;28;20221;-85
2023/06/08 06:02:39;;;;;;;4.85;4.05;;;;;;;;;;5059905;28;20798;-85
2023/06/08 06:05:09;;;;;;;4.70;4.30;;;;;;;;;;5034006;28;20570;-85
2023/06/08 06:07:36;;;;;;;5.30;4.90;;;;;;;;;;5044859;28;20216;-85
2023/06/08 06:10:04;;;;;;;4.43;4.07;;;;;;;;;;5053067;28;20249;-84
2023/06/08 06:12:31;;;;;;;4.10;3.80;;;;;;;;;;5053740;28;20282;-85
2023/06/08 06:14:59;;;;;;;3.95;3.72;;;;;;;;;;5053715;28;20698;-85
2023/06/08 06:17:28;;;;;;;4.07;3.78;;;;;;;;;;5053286;28;20200;-85
2023/06/08 06:19:55;;;;;;;5.78;5.18;;;;;;;;;;5045337;28;20245;-85
2023/06/08 06:22:23;;;;;;;3.97;3.58;;;;;;;;;;5050039;28;20220;-86
2023/06/08 06:24:50;;;;;;;3.80;3.20;;;;;;;;;;5049968;28;20726;-85
2023/06/08 06:27:19;;;;;;;3.40;3.03;;;;;;;;;;5045215;28;20198;-85
2023/06/08 06:29:47;;;;;;;3.72;3.42;;;;;;;;;;5051113;28;20275;-85
2023/06/08 06:32:14;;;;;;;4.47;4.15;;;;;;;;;;5058326;28;20201;-85
2023/06/08 06:34:44;;;;;;;4.15;3.80;;;;;;;;;;5049636;28;20212;-86
2023/06/08 06:37:11;;;;;;;3.50;3.08;;;;;;;;;;5046534;28;20205;-84
2023/06/08 06:39:39;;;;;;;3.35;3.05;;;;;;;;;;5046238;28;20245;-85
2023/06/08 06:42:07;;;;;;;4.40;4.00;;;;;;;;;;5052935;28;20288;-86
2023/06/08 06:44:34;;;;;;;4.18;3.88;;;;;;;;;;5051692;28;20202;-86
2023/06/08 06:47:02;;;;;;;4.03;3.72;;;;;;;;;;5052573;28;20304;-85
2023/06/08 06:49:29;;;;;;;5.03;4.63;;;;;;;;;;5053149;28;20221;-85
2023/06/08 06:51:58;;;;;;;5.30;4.80;;;;;;;;;;5041434;28;20269;-85
2023/06/08 06:54:26;;;;;;;4.15;3.85;;;;;;;;;;5049799;28;20224;-86
2023/06/08 06:56:53;;;;;;;4.90;4.50;;;;;;;;;;5053807;28;20722;-85
2023/06/08 06:59:22;;;;;;;4.80;4.43;;;;;;;;;;5043320;28;20212;-86
2023/06/08 07:01:49;;;;;;;5.80;5.30;;;;;;;;;;5049967;28;20205;-86
2023/06/08 07:04:17;;;;;;;5.50;4.47;;;;;;;;;;5048835;28;20258;-85
2023/06/08 07:06:47;;;;;;;4.60;4.20;;;;;;;;;;5051143;28;20234;-86
2023/06/08 07:09:17;;;;;;;4.50;4.10;;;;;;;;;;5052152;28;20233;-88
2023/06/08 07:11:44;;;;;;;5.03;4.50;;;;;;;;;;5044634;28;20201;-86
2023/06/08 07:14:12;;;;;;;4.95;4.60;;;;;;;;;;5048354;28;20226;-86
2023/06/08 07:16:39;;;;;;;4.30;3.90;;;;;;;;;;5048421;28;20288;-85
2023/06/08 07:19:07;;;;;;;4.22;3.75;;;;;;;;;;5045766;28;20222;-87
2023/06/08 07:21:38;;;;;;;3.38;3.17;;;;;;;;;;5049810;28;20342;-86
2023/06/08 07:24:06;;;;;;;4.72;4.15;;;;;;;;;;5046494;28;20698;-85
2023/06/08 07:26:35;;;;;;;4.80;4.43;;;;;;;;;;5047666;28;20292;-86
2023/06/08 07:29:03;;;;;;;5.72;4.57;;;;;;;;;;5057109;28;20227;-89
2023/06/08 07:31:31;;;;;;;4.35;3.95;;;;;;;;;;5052841;28;20757;-86
2023/06/08 07:33:59;;;;;;;3.50;3.30;;;;;;;;;;5052492;28;20313;-86
2023/06/08 07:36:28;;;;;;;4.28;3.97;;;;;;;;;;5051935;28;20262;-86
2023/06/08 07:38:56;;;;;;;6.10;4.50;;;;;;;;;;5052042;28;20192;-87
2023/06/08 07:41:26;;;;;;;5.35;4.35;;;;;;;;;;5052198;28;20229;-86
2023/06/08 07:43:56;;;;;;;4.85;4.45;;;;;;;;;;5052022;28;20202;-85
2023/06/08 07:46:23;;;;;;;4.60;4.20;;;;;;;;;;5051835;28;20199;-88
2023/06/08 07:48:51;;;;;;;3.75;3.45;;;;;;;;;;5051514;28;20190;-87
2023/06/08 07:51:18;;;;;;;4.25;3.47;;;;;;;;;;5051935;28;20312;-88
2023/06/08 07:53:46;;;;;;;3.42;3.13;;;;;;;;;;5083589;22;20300;-83
2023/06/08 07:56:13;;;;;;;4.35;4.05;;;;;;;;;;5073472;28;20641;-85
2023/06/08 07:58:41;;;;;;;4.90;4.40;;;;;;;;;;5076656;28;20232;-84
2023/06/08 08:01:09;;;;;;;3.70;3.40;;;;;;;;;;5069117;28;20197;-83
2023/06/08 08:03:38;;;;;;;4.88;4.40;;;;;;;;;;5069960;28;20229;-87
2023/06/08 08:06:06;;;;;;;4.25;3.95;;;;;;;;;;5069561;28;20204;-83
2023/06/08 08:08:34;;;;;;;4.55;4.15;;;;;;;;;;5054337;28;20569;-85
2023/06/08 08:11:01;;;;;;;3.97;3.28;;;;;;;;;;5064275;28;20217;-88
2023/06/08 08:13:29;;;;;;;3.85;3.58;;;;;;;;;;5074403;28;20217;-86
2023/06/08 08:15:57;;;;;;;4.75;4.25;;;;;;;;;;5075010;28;20189;-85
2023/06/08 08:18:26;;;;;;;3.25;3.05;;;;;;;;;;5074133;28;20264;-86
2023/06/08 08:20:53;;;;;;;3.75;3.45;;;;;;;;;;5081485;28;20710;-86
2023/06/08 08:23:21;;;;;;;3.50;3.30;;;;;;;;;;5079588;28;20221;-85
2023/06/08 08:25:48;;;;;;;3.58;3.28;;;;;;;;;;5077452;28;20211;-87
2023/06/08 08:28:16;;;;;;;4.60;4.22;;;;;;;;;;5079194;28;20292;-88
2023/06/08 08:30:44;;;;;;;5.20;4.70;;;;;;;;;;5077872;28;20205;-86
2023/06/08 08:33:11;;;;;;;3.63;3.35;;;;;;;;;;5080068;28;20229;-87
2023/06/08 08:35:40;;;;;;;4.50;4.07;;;;;;;;;;5077139;28;20256;-86
2023/06/08 08:38:07;;;;;;;4.63;4.25;;;;;;;;;;5079918;28;20200;-88
2023/06/08 08:40:35;;;;;;;4.25;3.85;;;;;;;;;;5077963;28;20260;-86
2023/06/08 08:43:07;;;;;;;3.53;3.17;;;;;;;;;;5078894;28;20225;-87
2023/06/08 08:45:36;;;;;;;4.57;4.18;;;;;;;;;;5077881;28;20554;-86
2023/06/08 08:48:04;;;;;;;4.35;4.05;;;;;;;;;;5078998;28;20220;-87
2023/06/08 08:50:36;;;;;;;3.97;3.60;;;;;;;;;;5076077;28;20551;-85
2023/06/08 08:53:06;;;;;;;3.63;3.33;;;;;;;;;;5077510;28;20229;-88
2023/06/08 08:55:34;;;;;;;3.45;3.25;;;;;;;;;;5077983;28;20212;-87
2023/06/08 08:58:03;;;;;;;9.57;3.88;;;;;;;;;;5079118;28;20205;-88
2023/06/08 09:00:32;;;;;;;4.20;3.90;;;;;;;;;;5078414;28;20283;-86
2023/06/08 09:02:59;;;;;;;4.35;3.95;;;;;;;;;;5079300;28;20228;-84
2023/06/08 09:05:27;;;;;;;4.35;3.95;;;;;;;;;;5074844;28;20273;-87
2023/06/08 09:07:55;;;;;;;4.43;4.03;;;;;;;;;;5058064;28;20643;-86
2023/06/08 09:10:27;;;;;;;4.38;4.07;;;;;;;;;;5059606;28;20201;-87
2023/06/08 09:12:56;;;;;;;4.53;4.22;;;;;;;;;;5059793;28;20285;-88
2023/06/08 09:15:30;;;;;;;3.95;3.65;;;;;;;;;;5061061;28;20251;-84
2023/06/08 09:18:02;;;;;;;3.53;3.22;;;;;;;;;;5078339;28;20193;-87
2023/06/08 09:20:32;;;;;;;4.13;3.75;;;;;;;;;;5077187;28;20196;-87
2023/06/08 09:23:00;;;;;;;4.00;3.03;;;;;;;;;;5077469;28;20248;-87
2023/06/08 09:25:39;;;;;;;3.50;3.30;;;;;;;;;;5077055;28;20201;-87
2023/06/08 09:28:18;;;;;;;3.97;3.67;;;;;;;;;;5078067;28;20201;-85
2023/06/08 09:30:48;;;;;;;3.65;3.45;;;;;;;;;;5076887;28;20227;-86
2023/06/08 09:33:21;;;;;;;3.78;3.58;;;;;;;;;;5069447;28;20226;-88
2023/06/08 09:35:49;;;;;;;3.97;3.67;;;;;;;;;;5058193;28;20228;-87
2023/06/08 09:38:18;;;;;;;3.42;3.22;;;;;;;;;;5075961;28;20205;-87
2023/06/08 09:40:47;;;;;;;2.75;2.55;;;;;;;;;;5061262;28;20676;-87
2023/06/08 09:43:33;;;;;;;3.95;3.72;;;;;;;;;;5077209;28;20308;-88
2023/06/08 09:46:01;;;;;;;3.63;3.33;;;;;;;;;;5076124;28;20280;-87
2023/06/08 09:48:28;;;;;;;3.40;3.20;;;;;;;;;;5077185;28;20260;-86
2023/06/08 09:51:01;;;;;;;4.45;3.03;;;;;;;;;;5076962;28;20232;-86
2023/06/08 09:53:31;;;;;;;3.30;3.10;;;;;;;;;;5076916;28;20221;-86
2023/06/08 09:56:00;;;;;;;4.22;3.92;;;;;;;;;;5077451;28;20220;-86
2023/06/08 09:58:30;;;;;;;4.07;3.70;;;;;;;;;;5077456;28;20201;-86
2023/06/08 10:01:02;;;;;;;3.10;2.90;;;;;;;;;;5077133;28;20718;-86
2023/06/08 10:03:32;;;;;;;4.03;3.72;;;;;;;;;;5057320;28;20225;-87
2023/06/08 10:06:00;;;;;;;3.78;3.53;;;;;;;;;;5057690;28;20221;-87
2023/06/08 10:08:28;;;;;;;3.60;3.33;;;;;;;;;;5057651;28;20201;-86
2023/06/08 10:10:57;;;;;;;3.03;2.83;;;;;;;;;;5057798;28;20202;-86
2023/06/08 10:13:26;;;;;;;3.95;3.65;;;;;;;;;;5057483;28;20225;-86
2023/06/08 10:15:54;;;;;;;4.47;4.07;;;;;;;;;;5059632;28;20225;-86
2023/06/08 10:18:21;;;;;;;4.57;4.18;;;;;;;;;;5077326;28;20197;-87
2023/06/08 10:20:49;;;;;;;4.07;3.67;;;;;;;;;;5076951;28;20201;-86
2023/06/08 10:23:17;;;;;;;3.78;3.30;;;;;;;;;;5077739;28;20281;-87
2023/06/08 10:25:45;;;;;;;4.45;4.15;;;;;;;;;;5077695;28;20193;-85
2023/06/08 10:28:20;;;;;;;3.85;3.55;;;;;;;;;;5077904;28;20236;-85
2023/06/08 10:30:48;;;;;;;4.30;3.90;;;;;;;;;;5077505;28;20190;-86
2023/06/08 10:33:19;;;;;;;3.30;3.10;;;;;;;;;;5077153;28;20240;-87
2023/06/08 10:36:08;;;;;;;3.25;3.03;;;;;;;;;;5077236;28;20232;-85
2023/06/08 10:38:39;;;;;;;2.88;2.67;;;;;;;;;;5078297;28;20276;-86
2023/06/08 10:41:06;;;;;;;3.25;3.05;;;;;;;;;;5075928;28;20562;-85
2023/06/08 10:43:33;;;;;;;3.15;2.85;;;;;;;;;;5075122;28;20249;-85
2023/06/08 10:46:03;;;;;;;2.80;2.60;;;;;;;;;;5075477;28;20201;-86
2023/06/08 10:48:37;;;;;;;3.97;3.67;;;;;;;;;;5074605;28;20703;-87
2023/06/08 10:51:06;;;;;;;3.72;3.30;;;;;;;;;;5074366;28;20187;-86
2023/06/08 10:53:56;;;;;;;3.90;3.45;;;;;;;;;;5073639;28;20229;-87
2023/06/08 10:56:28;;;;;;;3.75;3.55;;;;;;;;;;5073762;28;20661;-87
2023/06/08 10:58:55;;;;;;;3.60;3.40;;;;;;;;;;5073745;28;20254;-87
2023/06/08 11:01:32;;;;;;;3.47;3.17;;;;;;;;;;5074435;28;20223;-87
2023/06/08 11:04:00;;;;;;;3.50;3.22;;;;;;;;;;5074028;28;20715;-87
2023/06/08 11:06:30;;;;;;;3.55;3.25;;;;;;;;;;5073359;28;20205;-87
2023/06/08 11:08:57;;;;;;;3.22;3.03;;;;;;;;;;5074866;28;20223;-87
2023/06/08 11:11:25;;;;;;;3.05;2.85;;;;;;;;;;5075732;28;20220;-85
2023/06/08 11:13:53;;;;;;;3.22;3.03;;;;;;;;;;5075282;28;20221;-86
2023/06/08 11:16:21;;;;;;;3.05;2.85;;;;;;;;;;5074036;28;20911;-85
2023/06/08 11:18:51;;;;;;;3.22;3.03;;;;;;;;;;5075184;28;20287;-87
2023/06/08 11:21:23;;;;;;;3.45;3.22;;;;;;;;;;5074881;28;20279;-86
2023/06/08 11:23:50;;;;;;;4.13;3.83;;;;;;;;;;5074081;28;20593;-86
2023/06/08 11:26:22;;;;;;;3.92;3.50;;;;;;;;;;5074266;28;20192;-86
2023/06/08 11:28:50;;;;;;;3.60;3.30;;;;;;;;;;5074297;28;20185;-86
2023/06/08 11:31:18;;;;;;;6.13;3.60;;;;;;;;;;5073514;28;20243;-86
2023/06/08 11:33:50;;;;;;;3.83;3.53;;;;;;;;;;5073884;28;20304;-87
2023/06/08 11:36:18;;;;;;;4.70;4.10;;;;;;;;;;5073083;28;20221;-86
2023/06/08 11:38:45;;;;;;;3.78;3.58;;;;;;;;;;5073519;28;20205;-86
2023/06/08 11:41:14;;;;;;;3.00;2.80;;;;;;;;;;5072817;28;20292;-87
2023/06/08 11:43:42;;;;;;;2.55;2.40;;;;;;;;;;5073234;28;20252;-86
2023/06/08 11:46:11;;;;;;;3.58;3.28;;;;;;;;;;5073990;28;20606;-87
2023/06/08 11:48:40;;;;;;;2.85;2.65;;;;;;;;;;5072844;28;20211;-86
2023/06/08 11:51:09;;;;;;;2.80;2.65;;;;;;;;;;5073271;28;20665;-87
2023/06/08 11:53:37;;;;;;;3.17;2.97;;;;;;;;;;5073816;28;20240;-86
2023/06/08 11:56:06;;;;;;;2.72;2.53;;;;;;;;;;5077264;28;20316;-86
2023/06/08 11:58:36;;;;;;;3.17;2.90;;;;;;;;;;5077404;28;20232;-87
2023/06/08 12:01:07;;;;;;;3.15;2.95;;;;;;;;;;5078115;28;20304;-87
2023/06/08 12:03:42;;;;;;;2.70;2.50;;;;;;;;;;5078315;28;20224;-87
2023/06/08 12:06:11;;;;;;;3.35;3.05;;;;;;;;;;5078009;28;20252;-87
2023/06/08 12:08:38;;;;;;;3.83;3.47;;;;;;;;;;5077524;28;20233;-87
2023/06/08 12:11:10;;;;;;;3.38;3.08;;;;;;;;;;5076486;28;20669;-85
2023/06/08 12:13:38;;;;;;;3.67;3.38;;;;;;;;;;5078069;28;20257;-87
2023/06/08 12:16:07;;;;;;;3.35;3.13;;;;;;;;;;5077660;28;20231;-87
2023/06/08 12:18:39;;;;;;;2.72;2.63;;;;;;;;;;5078189;28;20203;-88
2023/06/08 12:21:08;;;;;;;3.05;2.75;;;;;;;;;;5077062;28;20204;-87
2023/06/08 12:23:37;;;;;;;2.70;2.53;;;;;;;;;;5076696;28;20243;-88
2023/06/08 12:26:04;;;;;;;3.20;3.00;;;;;;;;;;5077972;28;20334;-88
2023/06/08 12:28:33;;;;;;;3.35;3.15;;;;;;;;;;5077130;28;20288;-88
2023/06/08 12:31:01;;;;;;;3.38;3.17;;;;;;;;;;5077722;28;20232;-89
2023/06/08 12:33:28;;;;;;;3.78;3.47;;;;;;;;;;5067618;28;20218;-87
2023/06/08 12:35:56;;;;;;;3.30;3.10;;;;;;;;;;5063637;28;20291;-87
2023/06/08 12:38:24;;;;;;;3.55;3.25;;;;;;;;;;5076712;28;20297;-88
2023/06/08 12:40:54;;;;;;;3.40;3.10;;;;;;;;;;5070987;28;20205;-88
2023/06/08 12:43:22;;;;;;;3.50;3.30;;;;;;;;;;5056253;28;20222;-87
2023/06/08 12:45:51;;;;;;;3.20;3.00;;;;;;;;;;5057180;28;20295;-87
2023/06/08 12:48:19;;;;;;;3.15;2.95;;;;;;;;;;5056682;28;20215;-87
2023/06/08 12:50:47;;;;;;;3.20;3.00;;;;;;;;;;5058041;28;20229;-88
2023/06/08 12:53:14;;;;;;;3.10;2.90;;;;;;;;;;5075272;28;20307;-88
2023/06/08 12:55:43;;;;;;;3.40;3.20;;;;;;;;;;5076501;28;20205;-87
2023/06/08 12:58:12;;;;;;;3.47;3.17;;;;;;;;;;5076073;28;20213;-87
2023/06/08 13:00:39;;;;;;;3.25;3.05;;;;;;;;;;5076858;28;20222;-88
2023/06/08 13:03:08;;;;;;;3.95;3.17;;;;;;;;;;5077039;28;20304;-87
2023/06/08 13:05:36;;;;;;;3.00;2.80;;;;;;;;;;5076678;28;20203;-87
2023/06/08 13:08:13;;;;;;;3.50;3.30;;;;;;;;;;5076198;28;20201;-87
2023/06/08 13:10:41;;;;;;;3.28;3.08;;;;;;;;;;5077216;28;20188;-87
2023/06/08 13:13:08;;;;;;;3.47;2.65;;;;;;;;;;5076465;28;20312;-87
2023/06/08 13:15:38;;;;;;;3.10;2.80;;;;;;;;;;5076369;28;20275;-87
2023/06/08 13:18:06;;;;;;;4.50;4.10;;;;;;;;;;5076225;28;20224;-87
2023/06/08 13:20:33;;;;;;;3.25;2.92;;;;;;;;;;5076553;28;20205;-87
2023/06/08 13:23:01;;;;;;;4.07;3.78;;;;;;;;;;5076106;28;20711;-87
2023/06/08 13:25:28;;;;;;;8.13;4.60;;;;;;;;;;5075909;28;20193;-86
2023/06/08 13:27:56;;;;;;;3.40;3.10;;;;;;;;;;5075703;28;20235;-86
2023/06/08 13:30:24;;;;;;;4.45;4.15;;;;;;;;;;5076075;28;20200;-88
2023/06/08 13:32:53;;;;;;;3.67;3.38;;;;;;;;;;5076918;28;20562;-88
2023/06/08 13:35:20;;;;;;;3.70;3.17;;;;;;;;;;5076739;28;20203;-86
2023/06/08 13:37:50;;;;;;;4.80;3.78;;;;;;;;;;5075493;28;20211;-87
2023/06/08 13:40:18;;;;;;;3.45;3.05;;;;;;;;;;5077573;28;20296;-86
2023/06/08 13:42:46;;;;;;;4.07;3.78;;;;;;;;;;5075788;28;20635;-88
2023/06/08 13:45:13;;;;;;;8.40;3.83;;;;;;;;;;5076142;28;20209;-87
2023/06/08 13:47:41;;;;;;;3.80;3.50;;;;;;;;;;5076014;28;20284;-87
2023/06/08 13:50:11;;;;;;;4.10;3.80;;;;;;;;;;5076155;28;20669;-89
2023/06/08 13:52:38;;;;;;;3.85;3.55;;;;;;;;;;5077382;28;20246;-88
2023/06/08 13:55:06;;;;;;;4.20;3.70;;;;;;;;;;5076867;28;20281;-87
2023/06/08 13:57:34;;;;;;;11.80;4.13;;;;;;;;;;5076286;28;20229;-88
2023/06/08 14:00:02;;;;;;;3.97;3.38;;;;;;;;;;5076965;28;20224;-88
2023/06/08 14:02:29;;;;;;;3.53;3.22;;;;;;;;;;5075392;28;20197;-87
2023/06/08 14:04:57;;;;;;;3.88;3.40;;;;;;;;;;5074171;28;20224;-87
2023/06/08 14:07:26;;;;;;;3.33;3.08;;;;;;;;;;5074404;28;20225;-87
2023/06/08 14:09:54;;;;;;;3.92;3.63;;;;;;;;;;5076009;28;20264;-85
2023/06/08 14:12:22;;;;;;;3.60;3.40;;;;;;;;;;5075696;28;20229;-88
2023/06/08 14:14:50;;;;;;;3.13;2.92;;;;;;;;;;5075523;28;20228;-87
2023/06/08 14:17:18;;;;;;;3.78;3.47;;;;;;;;;;5074587;28;20225;-87
2023/06/08 14:19:47;;;;;;;3.50;3.20;;;;;;;;;;5076430;28;20677;-87
2023/06/08 14:22:15;;;;;;;3.45;3.17;;;;;;;;;;5075637;28;20292;-87
2023/06/08 14:24:45;;;;;;;2.97;2.78;;;;;;;;;;5074301;28;20228;-87
2023/06/08 14:27:13;;;;;;;3.92;3.63;;;;;;;;;;5075234;28;20240;-87
2023/06/08 14:29:40;;;;;;;3.45;3.25;;;;;;;;;;5075312;28;20239;-86
2023/06/08 14:32:08;;;;;;;3.13;2.83;;;;;;;;;;5076271;28;20200;-87
2023/06/08 14:34:36;;;;;;;3.35;3.15;;;;;;;;;;5076059;28;20308;-88
2023/06/08 14:37:04;;;;;;;5.10;4.18;;;;;;;;;;5075096;28;20232;-86
2023/06/08 14:39:35;;;;;;;3.70;3.40;;;;;;;;;;5075454;28;20717;-87
2023/06/08 14:42:05;;;;;;;3.70;3.45;;;;;;;;;;5074755;28;20186;-88
2023/06/08 14:44:33;;;;;;;3.40;3.10;;;;;;;;;;5075064;28;20253;-87
2023/06/08 14:47:01;;;;;;;3.00;2.80;;;;;;;;;;5075259;28;20283;-86
2023/06/08 14:49:29;;;;;;;4.18;3.50;;;;;;;;;;5076014;28;20197;-87
2023/06/08 14:51:57;;;;;;;4.20;2.85;;;;;;;;;;5067462;28;20213;-88
2023/06/08 14:54:24;;;;;;;2.90;2.45;;;;;;;;;;5055292;28;20253;-87